createdAt,value
2023-02-12T00:00:54.220Z,4.04
2023-02-12T00:06:03.199Z,4.01
2023-02-12T00:11:15.044Z,4.03
2023-02-12T00:16:22.816Z,4.01
2023-02-12T00:21:27.879Z,3.98
2023-02-12T00:26:33.866Z,3.99
2023-02-12T00:31:38.359Z,4.00
2023-02-12T00:36:42.892Z,3.98
2023-02-12T00:41:48.676Z,3.99
2023-02-12T00:46:52.867Z,4.02
2023-02-12T00:51:57.255Z,4.01
2023-02-12T00:57:04.311Z,3.98
2023-02-12T01:02:08.479Z,3.97
2023-02-12T01:07:13.293Z,3.96
2023-02-12T01:12:19.071Z,3.95
2023-02-12T01:17:24.747Z,3.91
2023-02-12T01:22:29.389Z,3.88
2023-02-12T01:27:35.451Z,3.88
2023-02-12T01:32:40.394Z,3.86
2023-02-12T01:37:44.616Z,3.80
2023-02-12T01:42:50.434Z,3.82
2023-02-12T01:47:54.887Z,3.81
2023-02-12T01:53:00.616Z,3.78
2023-02-12T01:58:07.240Z,3.80
2023-02-12T02:03:11.990Z,3.80
2023-02-12T02:08:16.730Z,3.80
2023-02-12T02:13:40.622Z,3.74
2023-02-12T02:18:54.224Z,3.68
2023-02-12T02:24:45.876Z,3.69
2023-02-12T02:30:45.579Z,3.72
2023-02-12T02:36:01.086Z,3.69
2023-02-12T02:41:10.429Z,3.64
2023-02-12T02:46:22.053Z,3.65
2023-02-12T02:51:32.068Z,3.64
2023-02-12T02:56:42.274Z,3.61
2023-02-12T03:01:54.096Z,3.58
2023-02-12T03:07:03.337Z,3.55
2023-02-12T03:12:15.744Z,3.49
2023-02-12T03:17:25.947Z,3.42
2023-02-12T03:22:35.744Z,3.41
2023-02-12T03:27:44.578Z,3.40
2023-02-12T03:33:01.263Z,3.37
2023-02-12T03:38:13.141Z,3.30
2023-02-12T03:43:24.264Z,3.26
2023-02-12T03:48:35.050Z,3.22
2023-02-12T03:53:39.520Z,3.10
2023-02-12T03:58:45.467Z,2.99
2023-02-12T04:03:51.435Z,2.95
2023-02-12T04:09:00.292Z,2.81
2023-02-12T04:14:21.759Z,2.68
2023-02-12T04:19:41.316Z,2.48
2023-02-12T04:24:55.940Z,2.35
2023-02-12T04:30:08.898Z,2.23
2023-02-12T04:35:21.820Z,2.05
2023-02-12T04:40:26.734Z,1.97
2023-02-12T04:45:34.012Z,1.93
2023-02-12T04:50:43.991Z,1.84
2023-02-12T04:55:50.688Z,1.77
2023-02-12T05:00:54.901Z,1.57
2023-02-12T05:06:04.785Z,1.54
2023-02-12T05:11:11.767Z,1.47
2023-02-12T05:16:16.164Z,1.30
2023-02-12T05:21:21.915Z,1.37
2023-02-12T05:26:26.373Z,1.35
2023-02-12T05:31:30.994Z,1.08
2023-02-12T05:36:36.572Z,0.98
2023-02-12T05:41:40.956Z,0.88
2023-02-12T05:46:45.722Z,0.81
2023-02-12T05:51:51.927Z,0.71
2023-02-12T05:56:56.474Z,0.55
2023-02-12T06:02:00.821Z,0.64
2023-02-12T06:07:07.479Z,0.68
2023-02-12T06:12:11.732Z,0.56
2023-02-12T06:17:16.366Z,0.63
2023-02-12T06:22:21.953Z,0.65
2023-02-12T06:27:26.598Z,0.66
2023-02-12T06:32:30.965Z,0.60
2023-02-12T06:37:38.357Z,0.63
2023-02-12T06:42:42.859Z,0.56
2023-02-12T06:47:47.479Z,0.70
2023-02-12T06:52:53.041Z,0.73
2023-02-12T06:57:57.300Z,0.80
2023-02-12T07:03:02.251Z,0.83
2023-02-12T07:08:07.968Z,0.94
2023-02-12T07:13:12.613Z,0.91
2023-02-12T07:18:16.766Z,0.97
2023-02-12T07:23:22.570Z,1.01
2023-02-12T07:28:27.576Z,0.97
2023-02-12T07:33:32.108Z,1.10
2023-02-12T07:38:39.891Z,1.12
2023-02-12T07:43:46.542Z,1.19
2023-02-12T07:48:52.728Z,1.21
2023-02-12T07:53:58.270Z,1.20
2023-02-12T07:59:04.743Z,1.41
2023-02-12T08:04:11.993Z,1.50
2023-02-12T08:09:21.007Z,1.45
2023-02-12T08:14:25.816Z,1.37
2023-02-12T08:19:29.976Z,1.36
2023-02-12T08:24:35.599Z,1.38
2023-02-12T08:29:40.781Z,1.48
2023-02-12T08:34:44.990Z,1.68
2023-02-12T08:39:50.814Z,1.57
2023-02-12T08:44:55.507Z,1.58
2023-02-12T08:49:59.855Z,1.79
2023-02-12T08:55:05.974Z,1.76
2023-02-12T09:00:12.600Z,1.54
2023-02-12T09:05:16.905Z,1.84
2023-02-12T09:10:22.954Z,1.98
2023-02-12T09:15:27.579Z,1.93
2023-02-12T09:20:32.154Z,1.76
2023-02-12T09:25:41.526Z,1.93
2023-02-12T09:30:46.194Z,1.88
2023-02-12T09:35:50.810Z,1.97
2023-02-12T09:41:39.112Z,2.27
2023-02-12T09:46:51.056Z,2.17
2023-02-12T09:51:56.348Z,2.05
2023-02-12T09:57:06.175Z,2.15
2023-02-12T10:02:15.700Z,2.02
2023-02-12T10:07:39.806Z,1.64
2023-02-12T10:12:54.410Z,1.85
2023-02-12T10:18:10.156Z,2.00
2023-02-12T10:23:49.120Z,2.21
2023-02-12T10:28:56.596Z,2.26
2023-02-12T10:34:00.792Z,2.03
2023-02-12T10:39:17.396Z,1.92
2023-02-12T10:44:23.201Z,1.97
2023-02-12T10:49:27.564Z,1.83
2023-02-12T10:54:34.468Z,1.82
2023-02-12T10:59:40.936Z,2.04
2023-02-12T11:04:45.197Z,2.24
2023-02-12T11:09:52.919Z,2.37
2023-02-12T11:15:01.830Z,2.43
2023-02-12T11:20:28.236Z,2.50
2023-02-12T11:25:35.686Z,2.60
2023-02-12T11:30:53.279Z,2.80
2023-02-12T11:36:02.711Z,2.76
2023-02-12T11:41:25.215Z,3.12
2023-02-12T11:46:31.090Z,3.32
2023-02-12T11:51:35.642Z,3.27
2023-02-12T11:56:46.194Z,3.38
2023-02-12T12:01:55.763Z,3.39
2023-02-12T12:07:04.742Z,3.45
2023-02-12T12:12:18.710Z,3.47
2023-02-12T12:17:49.324Z,3.67
2023-02-12T12:23:00.840Z,4.03
2023-02-12T12:28:26.693Z,4.15
2023-02-12T12:33:42.729Z,4.13
2023-02-12T12:38:59.500Z,4.22
2023-02-12T12:44:23.082Z,4.20
2023-02-12T12:49:46.077Z,4.28
2023-02-12T12:55:13.934Z,4.92
2023-02-12T13:00:42.847Z,4.27
2023-02-12T13:06:09.161Z,4.21
2023-02-12T13:11:32.650Z,4.11
2023-02-12T13:16:44.336Z,3.83
2023-02-12T13:21:58.624Z,3.88
2023-02-12T13:27:06.610Z,4.01
2023-02-12T13:32:18.029Z,3.89
2023-02-12T13:37:36.497Z,3.89
2023-02-12T13:42:52.057Z,3.87
2023-02-12T13:48:33.766Z,3.54
2023-02-12T13:54:00.537Z,3.56
2023-02-12T13:59:06.442Z,3.60
2023-02-12T14:04:31.024Z,3.44
2023-02-12T14:09:42.325Z,3.32
2023-02-12T14:14:50.422Z,3.38
2023-02-12T14:19:58.961Z,3.35
2023-02-12T14:25:26.671Z,3.19
2023-02-12T14:30:38.407Z,3.34
2023-02-12T14:35:46.594Z,3.39
2023-02-12T14:40:53.921Z,3.38
2023-02-12T14:46:20.637Z,3.43
2023-02-12T14:51:42.800Z,3.55
2023-02-12T14:56:50.892Z,3.55
2023-02-12T15:01:56.575Z,3.46
2023-02-12T15:07:08.419Z,3.47
2023-02-12T15:12:21.847Z,3.51
2023-02-12T15:17:31.100Z,3.42
2023-02-12T15:22:41.777Z,3.31
2023-02-12T15:27:50.559Z,3.25
2023-02-12T15:32:56.613Z,3.10
2023-02-12T15:38:02.470Z,2.90
2023-02-12T15:43:19.629Z,2.67
2023-02-12T15:48:30.575Z,2.34
2023-02-12T15:53:35.585Z,2.07
2023-02-12T15:58:48.125Z,1.85
2023-02-12T16:03:54.503Z,1.73
2023-02-12T16:09:04.038Z,1.82
2023-02-12T16:14:22.051Z,1.66
2023-02-12T16:19:29.185Z,1.61
2023-02-12T16:24:36.126Z,1.65
2023-02-12T16:29:47.938Z,1.67
2023-02-12T16:35:02.244Z,1.75
2023-02-12T16:40:34.666Z,1.91
2023-02-12T16:45:45.025Z,2.07
2023-02-12T16:50:53.469Z,2.24
2023-02-12T16:55:58.478Z,2.37
2023-02-12T17:01:05.937Z,2.43
2023-02-12T17:06:12.085Z,2.54
2023-02-12T17:11:17.988Z,2.58
2023-02-12T17:16:31.281Z,2.65
2023-02-12T17:21:39.617Z,2.68
2023-02-12T17:26:43.977Z,2.77
2023-02-12T17:31:50.572Z,2.82
2023-02-12T17:36:55.095Z,2.83
2023-02-12T17:42:00.281Z,2.85
2023-02-12T17:47:06.282Z,2.89
2023-02-12T17:52:11.045Z,2.92
2023-02-12T17:57:15.868Z,2.91
2023-02-12T18:02:21.748Z,2.79
2023-02-12T18:07:26.185Z,2.41
2023-02-12T18:12:32.773Z,2.41
2023-02-12T18:17:38.814Z,2.40
2023-02-12T18:22:45.166Z,2.07
2023-02-12T18:27:49.749Z,2.04
2023-02-12T18:32:55.441Z,2.04
2023-02-12T18:37:59.695Z,2.08
2023-02-12T18:43:04.359Z,1.98
2023-02-12T18:48:09.775Z,2.11
2023-02-12T18:53:14.693Z,2.18
2023-02-12T18:58:18.940Z,2.29
2023-02-12T19:03:25.074Z,2.39
2023-02-12T19:08:29.603Z,2.38
2023-02-12T19:13:34.299Z,2.37
2023-02-12T19:18:40.520Z,2.46
2023-02-12T19:23:45.210Z,2.39
2023-02-12T19:28:49.604Z,2.48
2023-02-12T19:33:59.864Z,2.57
2023-02-12T19:39:06.870Z,2.64
2023-02-12T19:44:17.292Z,2.69
2023-02-12T19:49:26.837Z,2.74
2023-02-12T19:54:31.363Z,2.76
2023-02-12T19:59:36.271Z,2.79
2023-02-12T20:04:41.994Z,2.87
2023-02-12T20:09:46.865Z,2.91
2023-02-12T20:14:51.430Z,2.95
2023-02-12T20:19:57.505Z,3.01
2023-02-12T20:25:01.885Z,3.09
2023-02-12T20:30:09.790Z,3.18
2023-02-12T20:35:16.882Z,3.23
2023-02-12T20:40:21.454Z,3.28
2023-02-12T20:45:26.350Z,3.32
2023-02-12T20:50:31.937Z,3.33
2023-02-12T20:55:36.861Z,3.33
2023-02-12T21:00:41.254Z,3.28
2023-02-12T21:05:47.099Z,3.32
2023-02-12T21:10:58.643Z,3.28
2023-02-12T21:16:09.205Z,3.23
2023-02-12T21:21:18.982Z,3.23
2023-02-12T21:26:26.173Z,3.16
2023-02-12T21:31:33.714Z,3.23
2023-02-12T21:36:41.727Z,3.16
2023-02-12T21:41:46.413Z,3.18
2023-02-12T21:46:51.325Z,3.15
2023-02-12T21:51:59.427Z,3.18
2023-02-12T21:57:03.926Z,3.14
2023-02-12T22:02:10.983Z,3.09
2023-02-12T22:07:16.914Z,3.09
2023-02-12T22:12:21.462Z,3.08
2023-02-12T22:17:25.888Z,3.02
2023-02-12T22:22:31.826Z,3.01
2023-02-12T22:27:36.177Z,3.03
2023-02-12T22:32:40.643Z,2.97
2023-02-12T22:37:46.376Z,3.01
2023-02-12T22:42:50.633Z,3.01
2023-02-12T22:47:55.555Z,3.05
2023-02-12T22:53:01.694Z,3.03
2023-02-12T22:58:06.528Z,3.05
2023-02-12T23:03:10.818Z,3.14
2023-02-12T23:08:16.402Z,3.18
2023-02-12T23:13:29.358Z,3.14
2023-02-12T23:18:34.276Z,3.19
2023-02-12T23:23:40.052Z,3.20
2023-02-12T23:28:44.442Z,3.22
2023-02-12T23:33:49.032Z,3.19
2023-02-12T23:38:54.683Z,3.19
2023-02-12T23:43:59.513Z,3.15
2023-02-12T23:49:04.196Z,3.18
2023-02-12T23:54:10.161Z,3.18
2023-02-12T23:59:14.987Z,3.21
